createdAt,value
2023-07-24T00:00:23.464Z,15.14
2023-07-24T00:02:50.154Z,15.13
2023-07-24T00:05:16.892Z,15.12
2023-07-24T00:07:43.523Z,15.09
2023-07-24T00:10:10.369Z,15.04
2023-07-24T00:12:37.091Z,15.03
2023-07-24T00:15:04.077Z,15.00
2023-07-24T00:17:30.764Z,14.97
2023-07-24T00:19:57.522Z,14.97
2023-07-24T00:22:24.150Z,14.91
2023-07-24T00:24:50.893Z,14.91
2023-07-24T00:27:17.761Z,14.89
2023-07-24T00:29:44.664Z,14.87
2023-07-24T00:32:11.511Z,14.85
2023-07-24T00:34:38.880Z,14.83
2023-07-24T00:37:05.865Z,14.81
2023-07-24T00:39:32.544Z,14.79
2023-07-24T00:41:59.321Z,14.77
2023-07-24T00:44:25.968Z,14.76
2023-07-24T00:46:52.815Z,14.74
2023-07-24T00:49:20.338Z,14.72
2023-07-24T00:51:47.653Z,14.69
2023-07-24T00:54:15.985Z,14.68
2023-07-24T00:56:42.742Z,14.67
2023-07-24T00:59:09.500Z,14.66
2023-07-24T01:01:37.910Z,14.63
2023-07-24T01:04:06.844Z,14.63
2023-07-24T01:06:33.740Z,14.61
2023-07-24T01:09:00.575Z,14.58
2023-07-24T01:11:38.603Z,14.57
2023-07-24T01:14:28.047Z,14.54
2023-07-24T01:16:57.106Z,14.54
2023-07-24T01:19:39.484Z,14.53
2023-07-24T01:22:30.858Z,14.53
2023-07-24T01:25:26.735Z,14.47
2023-07-24T01:27:53.495Z,14.46
2023-07-24T01:30:22.449Z,14.46
2023-07-24T01:32:50.331Z,14.42
2023-07-24T01:35:17.659Z,14.42
2023-07-24T01:37:47.532Z,14.40
2023-07-24T01:40:14.763Z,14.40
2023-07-24T01:42:42.280Z,14.39
2023-07-24T01:45:09.715Z,14.38
2023-07-24T01:47:36.487Z,14.34
2023-07-24T01:50:03.450Z,14.33
2023-07-24T01:52:30.082Z,14.31
2023-07-24T01:54:56.743Z,14.30
2023-07-24T01:57:23.471Z,14.29
2023-07-24T01:59:50.266Z,14.29
2023-07-24T02:02:17.095Z,14.28
2023-07-24T02:04:44.109Z,14.26
2023-07-24T02:07:10.802Z,14.25
2023-07-24T02:09:37.463Z,14.18
2023-07-24T02:12:04.633Z,14.19
2023-07-24T02:14:33.448Z,14.18
2023-07-24T02:17:00.124Z,14.15
2023-07-24T02:19:26.850Z,14.16
2023-07-24T02:21:53.531Z,14.14
2023-07-24T02:24:20.262Z,14.12
2023-07-24T02:26:47.091Z,14.10
2023-07-24T02:29:13.749Z,14.08
2023-07-24T02:31:40.452Z,14.07
2023-07-24T02:34:07.390Z,14.07
2023-07-24T02:36:34.106Z,14.04
2023-07-24T02:39:00.788Z,14.04
2023-07-24T02:41:27.508Z,14.02
2023-07-24T02:43:54.124Z,14.03
2023-07-24T02:46:20.798Z,14.02
2023-07-24T02:48:47.517Z,14.04
2023-07-24T02:51:14.141Z,14.02
2023-07-24T02:53:40.770Z,14.02
2023-07-24T02:56:07.447Z,14.02
2023-07-24T02:58:34.118Z,14.03
2023-07-24T03:01:05.817Z,14.03
2023-07-24T03:03:32.627Z,13.98
2023-07-24T03:05:59.449Z,14.01
2023-07-24T03:08:26.286Z,14.01
2023-07-24T03:10:53.072Z,14.01
2023-07-24T03:13:19.731Z,14.01
2023-07-24T03:15:54.209Z,14.02
2023-07-24T03:18:21.435Z,14.04
2023-07-24T03:20:48.297Z,14.04
2023-07-24T03:23:15.259Z,14.06
2023-07-24T03:25:42.589Z,14.05
2023-07-24T03:28:09.650Z,14.07
2023-07-24T03:30:36.457Z,14.08
2023-07-24T03:33:03.642Z,14.09
2023-07-24T03:35:30.412Z,14.09
2023-07-24T03:37:57.084Z,14.12
2023-07-24T03:40:23.787Z,14.12
2023-07-24T03:42:50.425Z,14.16
2023-07-24T03:45:17.143Z,14.17
2023-07-24T03:47:44.416Z,14.18
2023-07-24T03:50:11.305Z,14.19
2023-07-24T03:52:38.004Z,14.21
2023-07-24T03:55:05.034Z,14.25
2023-07-24T03:57:31.707Z,14.26
2023-07-24T03:59:58.432Z,14.29
2023-07-24T04:02:25.505Z,14.32
2023-07-24T04:04:52.219Z,14.33
2023-07-24T04:07:18.941Z,14.36
2023-07-24T04:09:45.626Z,14.39
2023-07-24T04:12:12.406Z,14.43
2023-07-24T04:14:39.094Z,14.46
2023-07-24T04:17:06.063Z,14.49
2023-07-24T04:19:33.931Z,14.52
2023-07-24T04:22:00.615Z,14.54
2023-07-24T04:24:27.282Z,14.56
2023-07-24T04:26:53.926Z,14.59
2023-07-24T04:29:24.847Z,14.60
2023-07-24T04:31:51.826Z,14.65
2023-07-24T04:34:18.612Z,14.69
2023-07-24T04:36:45.347Z,14.73
2023-07-24T04:39:11.985Z,14.75
2023-07-24T04:41:38.665Z,14.78
2023-07-24T04:44:05.331Z,14.78
2023-07-24T04:46:32.224Z,14.81
2023-07-24T04:48:59.212Z,14.86
2023-07-24T04:51:25.941Z,14.90
2023-07-24T04:53:52.582Z,14.95
2023-07-24T04:56:19.252Z,15.01
2023-07-24T04:58:45.934Z,15.06
2023-07-24T05:01:12.631Z,15.09
2023-07-24T05:03:39.738Z,15.17
2023-07-24T05:06:06.452Z,15.22
2023-07-24T05:08:33.334Z,15.24
2023-07-24T05:11:00.221Z,15.31
2023-07-24T05:13:27.621Z,15.34
2023-07-24T05:15:54.369Z,15.40
2023-07-24T05:18:21.147Z,15.44
2023-07-24T05:20:49.742Z,15.50
2023-07-24T05:23:16.582Z,15.55
2023-07-24T05:25:43.337Z,15.63
2023-07-24T05:28:10.321Z,15.69
2023-07-24T05:30:37.609Z,15.75
2023-07-24T05:33:04.446Z,15.82
2023-07-24T05:35:31.184Z,15.87
2023-07-24T05:37:57.858Z,15.92
2023-07-24T05:40:24.530Z,15.99
2023-07-24T05:42:51.444Z,16.09
2023-07-24T05:45:18.326Z,16.19
2023-07-24T05:47:45.017Z,16.29
2023-07-24T05:50:14.598Z,16.35
2023-07-24T05:52:41.813Z,16.45
2023-07-24T05:55:09.099Z,16.52
2023-07-24T05:57:35.828Z,16.57
2023-07-24T06:00:05.073Z,16.66
2023-07-24T06:02:32.123Z,16.73
2023-07-24T06:04:59.082Z,16.77
2023-07-24T06:07:25.874Z,16.82
2023-07-24T06:09:52.604Z,16.90
2023-07-24T06:12:19.286Z,16.98
2023-07-24T06:14:46.353Z,17.12
2023-07-24T06:17:13.042Z,17.25
2023-07-24T06:19:39.822Z,17.37
2023-07-24T06:22:06.494Z,17.46
2023-07-24T06:24:33.179Z,17.55
2023-07-24T06:26:59.957Z,17.57
2023-07-24T06:29:27.092Z,17.56
2023-07-24T06:31:53.787Z,17.57
2023-07-24T06:34:20.577Z,17.59
2023-07-24T06:36:47.351Z,17.63
2023-07-24T06:39:13.985Z,17.71
2023-07-24T06:41:40.714Z,17.80
2023-07-24T06:44:07.372Z,17.89
2023-07-24T06:46:34.018Z,18.00
2023-07-24T06:49:00.711Z,18.11
2023-07-24T06:51:27.509Z,18.23
2023-07-24T06:53:54.155Z,18.35
2023-07-24T06:56:20.827Z,18.48
2023-07-24T06:58:47.771Z,18.63
2023-07-24T07:01:14.489Z,18.81
2023-07-24T07:03:41.196Z,18.98
2023-07-24T07:06:07.941Z,19.12
2023-07-24T07:08:34.693Z,19.29
2023-07-24T07:11:02.320Z,19.45
2023-07-24T07:13:29.043Z,19.77
2023-07-24T07:15:55.903Z,20.35
2023-07-24T07:18:23.177Z,21.13
2023-07-24T07:20:54.317Z,21.99
2023-07-24T07:23:22.296Z,22.92
2023-07-24T07:25:50.479Z,23.84
2023-07-24T07:28:17.590Z,24.72
2023-07-24T07:30:46.160Z,25.51
2023-07-24T07:33:13.035Z,26.28
2023-07-24T07:35:39.715Z,26.98
2023-07-24T07:38:06.474Z,27.66
2023-07-24T07:40:33.262Z,28.31
2023-07-24T07:43:00.046Z,28.96
2023-07-24T07:45:26.760Z,29.55
2023-07-24T07:47:54.584Z,30.08
2023-07-24T07:50:21.535Z,30.49
2023-07-24T07:52:52.332Z,30.91
2023-07-24T07:55:20.509Z,31.35
2023-07-24T07:57:47.302Z,31.75
2023-07-24T08:00:14.413Z,32.19
2023-07-24T08:02:41.382Z,32.63
2023-07-24T08:05:13.640Z,33.05
2023-07-24T08:07:43.028Z,34.02
2023-07-24T08:10:10.003Z,35.47
2023-07-24T08:12:36.629Z,36.75
2023-07-24T08:15:03.492Z,37.86
2023-07-24T08:17:31.195Z,38.80
2023-07-24T08:19:57.970Z,39.57
2023-07-24T08:22:25.535Z,40.13
2023-07-24T08:24:53.494Z,40.56
2023-07-24T08:27:21.878Z,41.06
2023-07-24T08:29:52.509Z,41.14
2023-07-24T08:32:19.598Z,40.22
2023-07-24T08:34:46.350Z,38.69
2023-07-24T08:37:13.180Z,38.62
2023-07-24T08:39:40.036Z,39.11
2023-07-24T08:42:11.338Z,39.80
2023-07-24T08:44:38.153Z,40.58
2023-07-24T08:47:05.397Z,41.09
2023-07-24T08:49:33.266Z,41.42
2023-07-24T08:52:02.354Z,41.79
2023-07-24T08:54:30.405Z,42.18
2023-07-24T08:56:57.011Z,42.48
2023-07-24T08:59:23.696Z,42.41
2023-07-24T09:01:50.352Z,41.11
2023-07-24T09:04:17.015Z,38.71
2023-07-24T09:06:44.274Z,36.50
2023-07-24T09:09:15.528Z,34.59
2023-07-24T09:11:50.621Z,32.97
2023-07-24T09:14:29.759Z,31.64
2023-07-24T09:17:07.102Z,30.52
2023-07-24T09:19:34.163Z,30.91
2023-07-24T09:22:11.475Z,32.52
2023-07-24T09:24:38.237Z,33.81
2023-07-24T09:27:08.450Z,35.02
2023-07-24T09:29:36.507Z,36.06
2023-07-24T09:32:03.540Z,36.84
2023-07-24T09:34:30.316Z,37.39
2023-07-24T09:36:57.175Z,37.68
2023-07-24T09:39:25.762Z,37.76
2023-07-24T09:41:53.592Z,37.52
2023-07-24T09:44:20.338Z,37.04
2023-07-24T09:47:02.478Z,36.50
2023-07-24T09:49:32.639Z,35.88
2023-07-24T09:52:03.602Z,35.44
2023-07-24T09:54:42.115Z,35.04
2023-07-24T09:57:21.480Z,34.37
2023-07-24T09:59:50.918Z,33.85
2023-07-24T10:02:18.889Z,33.59
2023-07-24T10:04:46.635Z,33.37
2023-07-24T10:07:14.816Z,32.99
2023-07-24T10:09:44.376Z,32.21
2023-07-24T10:12:11.045Z,31.34
2023-07-24T10:14:38.705Z,30.55
2023-07-24T10:17:06.368Z,29.87
2023-07-24T10:19:46.400Z,29.29
2023-07-24T10:22:25.338Z,28.86
2023-07-24T10:24:56.795Z,28.44
2023-07-24T10:27:27.205Z,28.07
2023-07-24T10:30:01.195Z,27.76
2023-07-24T10:32:28.122Z,27.46
2023-07-24T10:35:08.966Z,27.15
2023-07-24T10:37:37.529Z,26.93
2023-07-24T10:40:06.107Z,26.74
2023-07-24T10:42:35.233Z,26.59
2023-07-24T10:45:06.836Z,26.39
2023-07-24T10:47:33.905Z,26.15
2023-07-24T10:50:02.415Z,25.86
2023-07-24T10:52:33.869Z,25.67
2023-07-24T10:55:04.762Z,25.50
2023-07-24T10:57:32.131Z,25.40
2023-07-24T11:00:00.181Z,25.46
2023-07-24T11:02:27.376Z,25.66
2023-07-24T11:04:54.128Z,25.71
2023-07-24T11:07:21.839Z,25.80
2023-07-24T11:09:49.362Z,25.79
2023-07-24T11:16:19.847Z,24.78
2023-07-24T11:20:51.841Z,24.15
2023-07-24T11:23:19.137Z,23.84
2023-07-24T11:25:46.844Z,23.44
2023-07-24T11:28:15.081Z,23.01
2023-07-24T11:30:42.855Z,22.64
2023-07-24T11:33:11.458Z,22.34
2023-07-24T11:35:41.878Z,22.04
2023-07-24T11:38:11.918Z,21.77
2023-07-24T11:40:45.308Z,21.57
2023-07-24T11:43:20.056Z,21.35
2023-07-24T11:45:53.524Z,21.21
2023-07-24T11:48:24.821Z,21.06
2023-07-24T11:50:53.687Z,20.95
2023-07-24T11:53:25.864Z,20.86
2023-07-24T11:55:54.271Z,20.76
2023-07-24T11:58:21.805Z,20.71
2023-07-24T12:00:49.859Z,20.68
2023-07-24T12:03:26.591Z,20.64
2023-07-24T12:05:53.831Z,20.57
2023-07-24T12:08:24.925Z,20.56
2023-07-24T12:10:51.775Z,20.55
2023-07-24T12:13:20.802Z,20.54
2023-07-24T12:15:48.839Z,20.53
2023-07-24T12:18:16.241Z,20.55
2023-07-24T12:20:42.906Z,20.60
2023-07-24T12:23:09.807Z,20.58
2023-07-24T12:25:36.599Z,20.60
2023-07-24T12:28:03.567Z,20.62
2023-07-24T12:30:30.387Z,20.60
2023-07-24T12:32:57.271Z,20.58
2023-07-24T12:35:23.995Z,20.59
2023-07-24T12:37:50.734Z,20.60
2023-07-24T12:40:17.593Z,20.60
2023-07-24T12:42:44.319Z,20.62
2023-07-24T12:45:11.156Z,20.64
2023-07-24T12:47:37.874Z,20.65
2023-07-24T12:50:07.920Z,20.66
2023-07-24T12:52:34.911Z,20.66
2023-07-24T12:55:02.859Z,20.66
2023-07-24T12:57:30.658Z,20.68
2023-07-24T12:59:57.596Z,20.67
2023-07-24T13:02:24.478Z,20.71
2023-07-24T13:04:51.557Z,20.72
2023-07-24T13:07:18.256Z,20.76
2023-07-24T13:09:45.492Z,20.75
2023-07-24T13:12:12.231Z,20.78
2023-07-24T13:14:42.057Z,20.81
2023-07-24T13:17:09.592Z,20.83
2023-07-24T13:19:36.364Z,20.86
2023-07-24T13:22:03.064Z,20.85
2023-07-24T13:24:29.726Z,20.89
2023-07-24T13:26:56.405Z,20.91
2023-07-24T13:29:25.507Z,20.92
2023-07-24T13:31:55.549Z,20.91
2023-07-24T13:34:23.202Z,20.93
2023-07-24T13:36:49.937Z,20.92
2023-07-24T13:39:16.684Z,20.92
2023-07-24T14:27:30.562Z,20.18
2023-07-24T14:29:57.283Z,20.17
2023-07-24T14:32:23.973Z,20.16
2023-07-24T14:34:52.872Z,20.14
2023-07-24T14:37:20.158Z,20.15
2023-07-24T14:39:46.939Z,20.22
2023-07-24T14:42:13.680Z,20.25
2023-07-24T14:44:40.565Z,20.28
2023-07-24T14:47:09.430Z,20.32
2023-07-24T14:49:36.077Z,20.32
2023-07-24T14:52:02.767Z,20.31
2023-07-24T14:54:29.438Z,20.35
2023-07-24T14:57:01.943Z,20.41
2023-07-24T14:59:37.528Z,20.52
2023-07-24T15:02:04.606Z,20.57
2023-07-24T15:04:31.328Z,20.58
2023-07-24T15:06:58.154Z,20.62
2023-07-24T15:09:24.972Z,20.66
2023-07-24T15:11:51.702Z,20.73
2023-07-24T15:14:18.523Z,20.73
2023-07-24T15:16:46.574Z,20.77
2023-07-24T15:19:13.292Z,20.78
2023-07-24T15:21:40.024Z,20.80
2023-07-24T15:24:06.726Z,20.78
2023-07-24T15:26:33.509Z,20.74
2023-07-24T15:29:00.198Z,20.73
2023-07-24T15:31:27.030Z,20.73
2023-07-24T15:33:53.801Z,20.73
2023-07-24T15:36:20.459Z,20.65
2023-07-24T15:38:47.197Z,20.66
2023-07-24T15:41:13.886Z,20.59
2023-07-24T15:43:40.645Z,20.56
2023-07-24T15:46:07.474Z,20.53
2023-07-24T15:48:34.406Z,20.54
2023-07-24T15:51:01.104Z,20.47
2023-07-24T15:53:27.818Z,20.48
2023-07-24T15:55:54.721Z,20.45
2023-07-24T15:58:21.398Z,20.42
2023-07-24T16:00:48.087Z,20.45
2023-07-24T16:03:14.922Z,20.45
2023-07-24T16:05:41.786Z,20.41
2023-07-24T16:08:08.765Z,20.40
2023-07-24T16:10:35.559Z,20.42
2023-07-24T16:13:02.375Z,20.39
2023-07-24T16:20:29.412Z,20.34
2023-07-24T16:22:56.161Z,20.32
2023-07-24T16:25:22.940Z,20.30
2023-07-24T16:27:49.975Z,20.29
2023-07-24T16:30:16.879Z,20.27
2023-07-24T16:35:15.285Z,20.25
2023-07-24T16:37:42.041Z,20.25
2023-07-24T16:40:09.792Z,20.24
2023-07-24T16:42:36.677Z,20.26
2023-07-24T16:45:03.652Z,20.28
2023-07-24T16:47:30.612Z,20.27
2023-07-24T16:49:57.330Z,20.26
2023-07-24T16:52:24.011Z,20.23
2023-07-24T16:54:51.842Z,20.19
2023-07-24T16:57:18.598Z,20.16
2023-07-24T16:59:45.310Z,20.17
2023-07-24T17:02:13.767Z,20.17
2023-07-24T17:04:40.705Z,20.17
2023-07-24T17:07:07.907Z,20.17
2023-07-24T17:09:34.806Z,20.19
2023-07-24T17:12:04.675Z,20.16
2023-07-24T17:14:31.731Z,20.10
2023-07-24T17:16:58.490Z,20.09
2023-07-24T17:19:25.245Z,20.08
2023-07-24T17:21:52.088Z,20.08
2023-07-24T17:24:18.901Z,20.07
2023-07-24T17:26:45.777Z,20.07
2023-07-24T17:29:12.490Z,20.04
2023-07-24T17:31:40.534Z,20.04
2023-07-24T17:34:07.286Z,20.03
2023-07-24T17:36:33.953Z,20.03
2023-07-24T17:39:02.086Z,20.01
2023-07-24T17:41:29.154Z,20.02
2023-07-24T17:43:56.093Z,20.02
2023-07-24T17:46:22.873Z,20.02
2023-07-24T17:48:50.256Z,19.98
2023-07-24T17:51:17.061Z,19.96
2023-07-24T17:53:43.824Z,19.97
2023-07-24T17:56:10.640Z,19.97
2023-07-24T17:58:37.648Z,19.96
2023-07-24T18:01:04.364Z,19.99
2023-07-24T18:03:31.192Z,19.97
2023-07-24T18:05:59.479Z,19.97
2023-07-24T18:08:26.420Z,19.94
2023-07-24T18:10:53.246Z,19.95
2023-07-24T18:13:19.970Z,19.96
2023-07-24T18:15:46.848Z,19.97
2023-07-24T18:18:13.681Z,19.98
2023-07-24T18:20:40.486Z,20.01
2023-07-24T18:23:07.191Z,20.01
2023-07-24T18:25:33.856Z,20.02
2023-07-24T18:28:00.652Z,20.01
2023-07-24T18:30:29.923Z,20.03
2023-07-24T18:32:57.724Z,20.01
2023-07-24T18:35:26.157Z,20.00
2023-07-24T18:37:52.901Z,19.99
2023-07-24T18:40:19.807Z,19.96
2023-07-24T18:42:46.474Z,19.96
2023-07-24T18:45:13.628Z,19.95
2023-07-24T18:47:40.540Z,19.94
2023-07-24T18:50:07.783Z,19.89
2023-07-24T18:52:34.502Z,19.86
2023-07-24T18:55:01.219Z,19.84
2023-07-24T18:57:28.085Z,19.82
2023-07-24T18:59:54.849Z,19.81
2023-07-24T19:02:21.576Z,19.77
2023-07-24T19:04:48.272Z,19.73
2023-07-24T19:07:15.375Z,19.69
2023-07-24T19:09:42.114Z,19.66
2023-07-24T19:12:09.182Z,19.63
2023-07-24T19:14:36.062Z,19.59
2023-07-24T19:17:02.783Z,19.56
2023-07-24T19:19:29.446Z,19.53
2023-07-24T19:21:56.193Z,19.48
2023-07-24T19:24:22.975Z,19.44
2023-07-24T19:26:49.825Z,19.42
2023-07-24T19:29:16.651Z,19.38
2023-07-24T19:31:43.401Z,19.34
2023-07-24T19:34:10.125Z,19.33
2023-07-24T19:36:36.900Z,19.30
2023-07-24T19:39:03.678Z,19.29
2023-07-24T19:41:30.616Z,19.27
2023-07-24T19:43:57.414Z,19.24
2023-07-24T19:46:24.275Z,19.22
2023-07-24T19:48:51.010Z,19.18
2023-07-24T19:51:17.702Z,19.20
2023-07-24T19:53:44.470Z,19.18
2023-07-24T19:56:11.144Z,19.15
2023-07-24T19:58:38.101Z,19.14
2023-07-24T20:01:05.166Z,19.10
2023-07-24T20:03:32.298Z,19.06
2023-07-24T20:06:02.844Z,19.05
2023-07-24T20:08:33.255Z,19.01
2023-07-24T20:11:01.461Z,18.97
2023-07-24T20:13:31.196Z,18.91
2023-07-24T20:15:58.798Z,18.87
2023-07-24T20:18:25.953Z,18.81
2023-07-24T20:20:53.103Z,18.77
2023-07-24T20:23:20.572Z,18.75
2023-07-24T20:25:51.482Z,18.72
2023-07-24T20:28:19.646Z,18.68
2023-07-24T20:30:46.591Z,18.66
2023-07-24T20:33:13.648Z,18.62
2023-07-24T20:35:40.351Z,18.62
2023-07-24T20:38:07.813Z,18.59
2023-07-24T20:40:35.423Z,18.57
2023-07-24T20:43:04.140Z,18.55
2023-07-24T20:45:30.938Z,18.51
2023-07-24T20:47:57.788Z,18.50
2023-07-24T20:50:24.527Z,18.46
2023-07-24T20:52:51.386Z,18.45
2023-07-24T20:55:18.226Z,18.42
2023-07-24T20:57:45.000Z,18.39
2023-07-24T21:00:12.264Z,18.36
2023-07-24T21:02:39.043Z,18.32
2023-07-24T21:05:06.162Z,18.31
2023-07-24T21:07:32.881Z,18.28
2023-07-24T21:09:59.547Z,18.27
2023-07-24T21:12:26.281Z,18.25
2023-07-24T21:14:52.974Z,18.24
2023-07-24T21:17:19.708Z,18.22
2023-07-24T21:19:46.386Z,18.19
2023-07-24T21:22:14.405Z,18.16
2023-07-24T21:24:41.255Z,18.16
2023-07-24T21:27:09.787Z,18.14
2023-07-24T21:29:36.629Z,18.11
2023-07-24T21:32:03.590Z,18.10
2023-07-24T21:34:31.268Z,18.12
2023-07-24T21:36:58.082Z,18.13
2023-07-24T21:39:24.766Z,18.14
2023-07-24T21:41:51.581Z,18.14
2023-07-24T21:44:18.306Z,18.14
2023-07-24T21:46:45.341Z,18.16
2023-07-24T21:49:12.150Z,18.16
2023-07-24T21:51:38.882Z,18.20
2023-07-24T21:54:05.622Z,18.22
2023-07-24T21:56:32.525Z,18.26
2023-07-24T21:58:59.748Z,18.25
2023-07-24T22:01:26.581Z,18.28
2023-07-24T22:03:53.346Z,18.28
2023-07-24T22:06:20.081Z,18.31
2023-07-24T22:08:46.994Z,18.32
2023-07-24T22:11:15.150Z,18.31
2023-07-24T22:13:44.391Z,18.34
2023-07-24T22:16:12.073Z,18.33
2023-07-24T22:18:38.898Z,18.35
2023-07-24T22:21:06.024Z,18.35
2023-07-24T22:23:33.747Z,18.36
2023-07-24T22:26:03.904Z,18.35
2023-07-24T22:28:30.679Z,18.34
2023-07-24T22:30:57.350Z,18.34
2023-07-24T22:33:24.126Z,18.32
2023-07-24T22:36:00.278Z,18.32
2023-07-24T22:38:27.988Z,18.30
2023-07-24T22:40:54.679Z,18.29
2023-07-24T22:43:21.864Z,18.30
2023-07-24T22:45:48.613Z,18.28
2023-07-24T22:48:15.479Z,18.23
2023-07-24T22:50:42.279Z,18.22
2023-07-24T22:53:09.022Z,18.23
2023-07-24T22:55:35.722Z,18.24
2023-07-24T22:58:02.574Z,18.23
2023-07-24T23:00:31.484Z,18.24
2023-07-24T23:02:58.569Z,18.21
2023-07-24T23:05:25.311Z,18.23
2023-07-24T23:07:55.966Z,18.24
2023-07-24T23:10:23.268Z,18.26
2023-07-24T23:12:50.064Z,18.24
2023-07-24T23:15:19.402Z,18.24
2023-07-24T23:17:46.184Z,18.24
2023-07-24T23:20:12.909Z,18.24
2023-07-24T23:22:39.818Z,18.26
2023-07-24T23:25:06.997Z,18.29
2023-07-24T23:27:33.782Z,18.29
2023-07-24T23:30:00.578Z,18.28
2023-07-24T23:32:27.251Z,18.29
2023-07-24T23:34:54.405Z,18.31
2023-07-24T23:37:21.302Z,18.31
2023-07-24T23:39:47.971Z,18.32
2023-07-24T23:42:14.654Z,18.31
2023-07-24T23:44:41.469Z,18.32
2023-07-24T23:47:08.188Z,18.34
2023-07-24T23:49:34.925Z,18.34
2023-07-24T23:52:01.852Z,18.35
2023-07-24T23:54:28.545Z,18.37
2023-07-24T23:56:55.186Z,18.39
2023-07-24T23:59:21.898Z,18.40
